Latest Coastal Weather Observations for Flinders Reef

IDQ60701

Issued at 11:31 pm EST Friday 9 December 2016 (issued every 10 minutes, with the page automatically refreshed every 10 minutes)

About coastal observations | Map of coastal stations | Coastal observations for QLD | Marine services | Other Formats
Station Details ID: 200783 Name: FLINDERS REEF Lat: -17.72 Lon: 148.45 Height: 2.6 m
Data from the previous 72 hours. | See also: Recent months at Flinders Reef
Date/Time
EST
Temp
°C
Wind Pressure Rain since
9am
mm
Weather Cloud Vis
km
Sea
Height
m
Swell
Dir  Spd
kts
Gust
kts
hPa Trend Height
m
Period
s
Dir
09/11:24pm 27.3 ENE 13 - 1011.6 - - - - - - - - -
09/11:00pm 27.2 ENE 15 17 1011.7 - - - - - - - - -
09/10:30pm 27.2 E 15 17 1011.6 - - - - - - - - -
09/10:24pm 27.3 E 14 - 1011.4 - - - - - - - - -
09/10:00pm 27.2 E 14 15 1011.4 - - - - - - - - -
09/09:30pm 27.3 E 12 14 1011.5 - - - - - - - - -
09/09:24pm 27.4 E 12 - 1011.4 - - - - - - - - -
09/09:00pm 27.3 E 12 14 1011.5 - - - - - - - - -
09/08:30pm 27.3 E 12 13 1011.4 - - - - - - - - -
09/08:24pm 27.3 E 12 - 1011.3 - - - - - - - - -
09/08:00pm 27.3 E 12 14 1011.3 - - - - - - - - -
09/07:30pm 27.3 E 12 14 1010.9 - - - - - - - - -
09/07:24pm 27.3 E 12 - 1010.7 - - - - - - - - -
09/07:00pm 27.3 E 11 13 1010.4 - - - - - - - - -
09/06:30pm 27.4 E 11 13 1010.0 - - - - - - - - -
09/06:24pm 27.4 E 12 - 1009.9 - - - - - - - - -
09/06:00pm 28.1 E 10 11 1010.1 - - - - - - - - -
09/05:30pm 28.0 E 11 13 1009.8 - - - - - - - - -
09/05:24pm 28.4 E 12 - 1009.7 - - - - - - - - -
09/05:00pm 28.6 E 13 14 1009.4 - - - - - - - - -
09/04:30pm 28.5 E 12 14 1009.2 - - - - - - - - -
09/04:24pm 28.4 E 12 - 1009.0 - - - - - - - - -
09/04:00pm 28.5 E 10 12 1009.1 - - - - - - - - -
09/03:30pm 28.2 E 11 13 1008.9 - - - - - - - - -
09/03:24pm 28.7 E 10 - 1008.8 - - - - - - - - -
09/03:00pm 28.6 ENE 9 11 1009.1 - - - - - - - - -
09/02:30pm 28.5 E 9 10 1009.3 - - - - - - - - -
09/02:24pm 28.6 E 9 - 1009.3 - - - - - - - - -
09/02:00pm 28.8 ENE 9 10 1009.6 - - - - - - - - -
09/01:30pm 28.5 E 8 10 1009.8 - - - - - - - - -
09/01:24pm 28.3 E 6 - 1009.7 - - - - - - - - -
09/01:00pm 28.9 ENE 5 6 1010.0 - - - - - - - - -
09/12:30pm 27.8 ENE 8 9 1010.2 - - - - - - - - -
09/12:24pm 28.2 ENE 7 - 1010.0 - - - - - - - - -
09/12:00pm 27.5 ENE 5 11 1010.4 - - - - - - - - -
09/11:47am 27.5 S 15 25 1010.6 - - - - - - - - -
09/11:30am 27.6 NE 7 8 1010.8 - - - - - - - - -
09/11:24am 27.5 NE 7 - 1010.8 - - - - - - - - -
09/11:00am 27.5 NE 8 9 1011.0 - - - - - - - - -
09/10:30am 27.7 NE 8 10 1011.2 - - - - - - - - -
09/10:24am 27.5 NE 9 - 1011.2 - - - - - - - - -
09/10:00am 27.2 NE 10 11 1011.3 - - - - - - - - -
09/09:30am 27.5 NE 9 11 1011.3 - - - - - - - - -
09/09:24am 27.6 NE 9 - 1011.1 - - - - - - - - -
09/09:00am 27.2 NE 9 10 1011.2 - - - - - - - - -
09/08:30am 27.3 NNE 10 11 1011.2 - - - - - - - - -
09/08:24am 27.2 NNE 10 - 1011.0 - - - - - - - - -
09/08:00am 27.4 NE 9 11 1011.0 - - - - - - - - -
09/07:30am 27.2 NE 8 9 1011.0 - - - - - - - - -
09/07:24am 27.2 NE 9 - 1010.9 - - - - - - - - -
09/07:00am 27.2 NE 8 10 1011.0 - - - - - - - - -
09/06:30am 27.0 NE 9 11 1010.7 - - - - - - - - -
09/06:24am 27.1 NE 10 - 1010.6 - - - - - - - - -
09/06:00am 27.0 NE 10 12 1010.4 - - - - - - - - -
09/05:30am 26.9 NE 9 11 1010.1 - - - - - - - - -
09/05:24am 26.8 NE 10 - 1010.0 - - - - - - - - -
09/05:00am 26.8 NE 10 11 1009.8 - - - - - - - - -
09/04:30am 26.6 NE 9 11 1009.4 - - - - - - - - -
09/04:24am 26.6 NE 9 - 1009.3 - - - - - - - - -
09/04:00am 26.5 ENE 10 11 1009.3 - - - - - - - - -
09/03:30am 26.6 ENE 7 8 1009.2 - - - - - - - - -
09/03:24am 26.6 ENE 7 - 1009.1 - - - - - - - - -
09/03:00am 26.4 E 7 8 1009.1 - - - - - - - - -
09/02:30am 26.4 E 8 9 1009.1 - - - - - - - - -
09/02:24am 26.5 E 8 - 1009.1 - - - - - - - - -
09/02:00am 26.6 NE 6 7 1009.4 - - - - - - - - -
09/01:30am 26.6 NE 7 9 1009.7 - - - - - - - - -
09/01:24am 26.6 NE 7 - 1009.6 - - - - - - - - -
09/01:00am 27.1 NE 10 12 1009.8 - - - - - - - - -
09/12:30am 27.1 ENE 6 7 1010.1 - - - - - - - - -
09/12:24am 27.2 ENE 6 - 1010.1 - - - - - - - - -
09/12:00am 27.1 ENE 8 10 1010.5 - - - - - - - - -
 
Date/Time
EST
Temp
°C
Wind Pressure Rain since
9am
mm
Weather Cloud Vis
km
Sea
Height
m
Swell
Dir  Spd
kts
Gust
kts
hPa Trend Height
m
Period
s
Dir
08/11:30pm 27.0 ENE 8 9 1010.7 - - - - - - - - -
08/11:24pm 27.0 ENE 8 - 1010.6 - - - - - - - - -
08/11:00pm 27.0 ENE 8 10 1010.9 - - - - - - - - -
08/10:30pm 27.5 ENE 10 11 1010.8 - - - - - - - - -
08/10:24pm 27.3 ENE 10 - 1010.7 - - - - - - - - -
08/10:00pm 27.0 ENE 12 13 1010.8 - - - - - - - - -
08/09:30pm 27.0 ENE 13 14 1010.7 - - - - - - - - -
08/09:24pm 27.0 ENE 13 - 1010.5 - - - - - - - - -
08/09:00pm 27.3 ENE 11 14 1010.6 - - - - - - - - -
08/08:30pm 27.2 E 9 11 1010.4 - - - - - - - - -
08/08:24pm 27.2 E 9 - 1010.3 - - - - - - - - -
08/08:00pm 27.3 E 9 11 1010.4 - - - - - - - - -
08/07:30pm 27.5 ENE 9 11 1010.2 - - - - - - - - -
08/07:24pm 27.3 ENE 9 - 1010.0 - - - - - - - - -
08/07:00pm 27.3 ENE 9 11 1010.0 - - - - - - - - -
08/06:30pm 27.4 ENE 9 11 1009.7 - - - - - - - - -
08/06:24pm 27.4 ENE 10 - 1009.4 - - - - - - - - -
08/06:00pm 27.6 ENE 10 12 1009.3 - - - - - - - - -
08/05:30pm 27.8 E 10 11 1009.1 - - - - - - - - -
08/05:24pm 27.8 E 10 - 1008.9 - - - - - - - - -
08/05:00pm 27.7 E 9 11 1008.9 - - - - - - - - -
08/04:30pm 27.2 ESE 10 12 1008.8 - - - - - - - - -
08/04:24pm 27.3 ESE 10 - 1008.7 - - - - - - - - -
08/04:00pm 27.2 ESE 10 13 1008.9 - - - - - - - - -
08/03:30pm 27.2 SE 11 12 1009.0 - - - - - - - - -
08/03:24pm 27.0 SE 11 - 1008.9 - - - - - - - - -
08/03:00pm 27.0 SE 11 12 1009.2 - - - - - - - - -
08/02:30pm 27.3 ESE 11 13 1009.4 - - - - - - - - -
08/02:24pm 26.9 ESE 11 - 1009.3 - - - - - - - - -
08/02:00pm 27.3 ESE 10 11 1009.6 - - - - - - - - -
08/01:30pm 27.2 ESE 10 11 1009.7 - - - - - - - - -
08/01:24pm 27.3 ESE 10 - 1009.7 - - - - - - - - -
08/01:00pm 26.8 ESE 11 12 1010.0 - - - - - - - - -
08/12:30pm 26.9 E 10 12 1010.4 - - - - - - - - -
08/12:24pm 27.0 E 10 - 1010.4 - - - - - - - - -
08/12:00pm 27.0 E 10 11 1010.7 - - - - - - - - -
08/11:30am 27.0 E 9 11 1011.0 - - - - - - - - -
08/11:24am 27.1 E 9 - 1011.0 - - - - - - - - -
08/11:00am 27.7 E 10 11 1011.2 - - - - - - - - -
08/10:30am 27.7 E 10 12 1011.5 - - - - - - - - -
08/10:24am 27.6 E 10 - 1011.4 - - - - - - - - -
08/10:00am 27.9 E 9 11 1011.5 - - - - - - - - -
08/09:30am 27.2 E 10 12 1011.6 - - - - - - - - -
08/09:24am 27.3 E 10 - 1011.4 - - - - - - - - -
08/09:00am 27.1 E 11 12 1011.6 - - - - - - - - -
08/08:30am 27.6 E 11 13 1011.4 - - - - - - - - -
08/08:24am 27.5 E 11 - 1011.3 - - - - - - - - -
08/08:00am 27.6 E 12 13 1011.3 - - - - - - - - -
08/07:30am 27.4 E 12 13 1011.2 - - - - - - - - -
08/07:24am 27.4 E 12 - 1011.1 - - - - - - - - -
08/07:00am 27.3 E 12 14 1011.1 - - - - - - - - -
08/06:30am 27.2 E 12 14 1010.9 - - - - - - - - -
08/06:24am 26.9 E 12 - 1010.9 - - - - - - - - -
08/06:00am 26.7 E 12 14 1010.8 - - - - - - - - -
08/05:30am 26.6 E 12 14 1010.5 - - - - - - - - -
08/05:24am 26.6 E 12 - 1010.4 - - - - - - - - -
08/05:00am 26.2 ENE 13 15 1010.3 - - - - - - - - -
08/04:30am 26.6 ENE 14 16 1010.2 - - - - - - - - -
08/04:24am 26.6 ENE 13 - 1010.1 - - - - - - - - -
08/04:00am 26.7 ENE 13 15 1010.2 - - - - - - - - -
08/03:30am 26.5 ENE 14 18 1010.1 - - - - - - - - -
08/03:24am 26.6 ENE 13 - 1009.9 - - - - - - - - -
08/03:00am 26.9 NE 13 15 1010.1 - - - - - - - - -
08/02:30am 26.8 ENE 13 16 1010.2 - - - - - - - - -
08/02:24am 26.8 ENE 14 - 1010.1 - - - - - - - - -
08/02:00am 27.0 NE 14 16 1010.2 - - - - - - - - -
08/01:30am 27.0 NE 14 17 1010.5 - - - - - - - - -
08/01:24am 26.9 NE 14 - 1010.4 - - - - - - - - -
08/01:00am 26.6 ENE 15 17 1010.8 - - - - - - - - -
08/12:30am 26.8 NE 15 17 1011.1 - - - - - - - - -
08/12:24am 26.9 NE 14 - 1011.0 - - - - - - - - -
08/12:00am 26.9 ENE 15 17 1011.2 - - - - - - - - -
 
Date/Time
EST
Temp
°C
Wind Pressure Rain since
9am
mm
Weather Cloud Vis
km
Sea
Height
m
Swell
Dir  Spd
kts
Gust
kts
hPa Trend Height
m
Period
s
Dir
07/11:30pm 27.0 ENE 15 17 1011.5 - - - - - - - - -
07/11:24pm 27.0 ENE 15 - 1011.6 - - - - - - - - -
07/11:00pm 27.1 ENE 14 16 1011.7 - - - - - - - - -
07/10:30pm 27.0 ENE 15 17 1011.9 - - - - - - - - -
07/10:24pm 27.2 ENE 15 - 1011.8 - - - - - - - - -
07/10:00pm 27.1 ENE 14 16 1012.1 - - - - - - - - -
07/09:30pm 27.2 ENE 14 16 1011.9 - - - - - - - - -
07/09:24pm 27.1 ENE 14 - 1011.8 - - - - - - - - -
07/09:00pm 27.3 ENE 14 16 1011.7 - - - - - - - - -
07/08:30pm 27.2 ENE 14 16 1011.6 - - - - - - - - -
07/08:24pm 27.4 ENE 14 - 1011.6 - - - - - - - - -
07/08:00pm 27.5 E 14 15 1011.6 - - - - - - - - -
07/07:30pm 27.5 E 12 14 1011.6 - - - - - - - - -
07/07:24pm 27.2 E 12 - 1011.4 - - - - - - - - -
07/07:00pm 27.5 E 11 13 1011.5 - - - - - - - - -
07/06:30pm 27.2 E 11 13 1011.3 - - - - - - - - -
07/06:24pm 27.6 E 10 - 1011.3 - - - - - - - - -
07/06:00pm 27.3 E 12 13 1011.1 - - - - - - - - -
07/05:30pm 27.5 E 7 11 1011.1 - - - - - - - - -
07/05:24pm 27.7 E 8 - 1010.9 - - - - - - - - -
07/05:00pm 27.4 E 2 11 1010.9 - - - - - - - - -
07/04:30pm 27.5 ESE 10 14 1010.7 - - - - - - - - -
07/04:24pm 27.4 ESE 9 - 1010.6 - - - - - - - - -
07/04:00pm 27.3 SE 8 10 1010.8 - - - - - - - - -
07/03:30pm 27.0 SE 9 10 1010.7 - - - - - - - - -
07/03:24pm 27.3 SE 10 - 1010.6 - - - - - - - - -
07/03:00pm 27.4 ESE 10 11 1010.8 - - - - - - - - -
07/02:30pm 26.9 SE 10 12 1011.2 - - - - - - - - -
07/02:24pm 26.7 SE 10 - 1011.2 - - - - - - - - -
07/02:00pm 26.7 SSE 12 13 1011.4 - - - - - - - - -
07/01:30pm 27.1 SE 13 15 1011.6 - - - - - - - - -
07/01:24pm 27.1 SE 13 - 1011.5 - - - - - - - - -
07/01:00pm 27.0 SE 13 14 1011.6 - - - - - - - - -
07/12:30pm 26.7 SE 13 15 1011.5 - - - - - - - - -
07/12:24pm 27.0 ESE 13 - 1011.5 - - - - - - - - -
07/12:00pm 27.1 ESE 12 14 1012.0 - - - - - - - - -
07/11:30am 27.0 ESE 12 15 1012.2 - - - - - - - - -
07/11:24am 27.4 ESE 12 - 1012.1 - - - - - - - - -
07/11:00am 27.3 ESE 13 15 1012.4 - - - - - - - - -
07/10:30am 27.3 ESE 12 14 1012.6 - - - - - - - - -
07/10:24am 27.2 ESE 12 - 1012.6 - - - - - - - - -
07/10:00am 27.1 ESE 13 14 1012.6 - - - - - - - - -
07/09:30am 27.2 ESE 14 15 1012.5 - - - - - - - - -
07/09:24am 27.0 ESE 13 - 1012.4 - - - - - - - - -
07/09:00am 27.1 E 13 16 1012.3 - - - - - - - - -
07/08:30am 27.2 E 15 17 1012.3 - - - - - - - - -
07/08:24am 27.1 E 15 - 1012.2 - - - - - - - - -
07/08:00am 27.3 E 16 18 1012.0 - - - - - - - - -
07/07:30am 27.2 E 16 19 1011.7 - - - - - - - - -
07/07:24am 27.2 E 16 - 1011.6 - - - - - - - - -
07/07:00am 26.7 E 15 17 1011.5 - - - - - - - - -
07/06:30am 26.7 E 15 17 1011.2 - - - - - - - - -
07/06:24am 26.6 E 15 - 1011.1 - - - - - - - - -
07/06:00am 26.5 ESE 15 17 1011.0 - - - - - - - - -
07/05:30am 26.2 E 18 21 1010.7 - - - - - - - - -
07/05:24am 26.6 ESE 16 - 1010.4 - - - - - - - - -
07/05:00am 26.3 E 15 18 1010.4 - - - - - - - - -
07/04:30am 26.6 ESE 14 16 1010.2 - - - - - - - - -
07/04:24am 26.6 ESE 13 - 1010.1 - - - - - - - - -
07/04:00am 26.6 ESE 13 15 1010.0 - - - - - - - - -
07/03:30am 26.4 ESE 13 15 1010.0 - - - - - - - - -
07/03:24am 26.2 ESE 13 - 1009.8 - - - - - - - - -
07/03:00am 26.4 E 14 16 1009.9 - - - - - - - - -
07/02:30am 26.7 E 15 17 1009.7 - - - - - - - - -
07/02:24am 26.5 E 15 - 1009.6 - - - - - - - - -
07/02:00am 26.6 E 16 19 1009.8 - - - - - - - - -
07/01:30am 26.5 ESE 15 17 1010.1 - - - - - - - - -
07/01:24am 26.7 ESE 14 - 1010.1 - - - - - - - - -
07/01:00am 26.5 E 12 14 1010.6 - - - - - - - - -
07/12:30am 26.5 E 12 15 1011.1 - - - - - - - - -
07/12:24am 26.7 E 12 - 1011.1 - - - - - - - - -
07/12:00am 26.3 E 13 15 1011.4 - - - - - - - - -

Other Formats:

Comma delimited format used in spreadsheet applications
http://www.bom.gov.au/fwo/IDQ60701/IDQ60701.94290.axf

JavaScript Object Notation format (JSON) in row-major order
http://www.bom.gov.au/fwo/IDQ60701/IDQ60701.94290.json